Fulton, Arkansas
Current Conditions -  °F | °C
As of 5:53 AM on Saturday 25 Oct 2014 (Local Time) from KTXK Reporting Station
Clear Clear  
Wind Chill: 58°   Ceiling: Unl
Heat Index: 58°   Visibility: 8mi
Dew Point: 55°   Wind: 3mph
Humidity: 90%   Direction: 230°SW
Pressure: 30.14"   Gusts: NA
Location:  33.61°N, 93.81°W
Report Text: KTXK 251053Z 23003KT 8SM CLR 14/13 A3014 RMK AO2 SLP201 T01440128
Loading
Personal Weather Stations






























Interactive Weather Map
Tropical Storm Tracking
New forecast layout! Learn more

10-Day Weather Forecast

Advertisements
Track Severe Weather on mobile